Great Falls, Montana
Current Conditions -  °F | °C
As of 1:53 AM on Monday 20 Oct 2014 (Local Time) from KGTF Reporting Station
Clear Clear  
Wind Chill: 57°   Ceiling: Unl
Heat Index: 57°   Visibility: 10mi
Dew Point: 29°   Wind: 14mph
Humidity: 34%   Direction: 190°S
Pressure: 29.88"   Gusts: NA
Location:  47.51°N, 111.3°W
Report Text: KGTF 200753Z 19012KT 10SM CLR 14/M02 A2988 RMK AO2 SLP096 T01391017
Loading
Personal Weather Stations






























Interactive Weather Map New forecast layout! Learn more

10-Day Weather Forecast

Advertisements
Track Severe Weather on mobile